Time;durP1;ratioP1;P1;durP2;ratioP2;P2;SDS_P1;SDS_P2;PMS_P1;PMS_P2;Temp;Humidity;BMP_temperature;BMP_pressure;BME280_temperature;BME280_humidity;BME280_pressure;Samples;Min_cycle;Max_cycle;Signal;HPM_P1;HPM_P2
2021/04/16 00:04:28;;;;;;;1999.90;999.90;;;;;;;6.23;65.70;102004.75;15753266;28;20044;-61
2021/04/16 00:12:01;;;;;;;1999.90;999.90;;;;;;;6.46;64.73;101990.44;15752254;28;20623;-60
2021/04/16 00:19:33;;;;;;;1999.90;999.90;;;;;;;6.56;63.81;101984.88;15748236;28;20213;-60
2021/04/16 00:27:06;;;;;;;1999.90;999.90;;;;;;;6.54;63.71;101991.81;15745423;28;20041;-58
2021/04/16 00:34:37;;;;;;;1999.90;999.90;;;;;;;6.50;63.81;101983.22;15726144;28;20041;-59
2021/04/16 00:42:13;;;;;;;1999.90;999.90;;;;;;;6.80;63.25;101970.47;15725468;28;20056;-60
2021/04/16 00:49:48;;;;;;;1999.90;999.90;;;;;;;6.41;64.01;101972.94;15741756;28;20412;-60
2021/04/16 00:57:21;;;;;;;1999.90;999.90;;;;;;;6.80;63.11;101960.22;15741243;28;20045;-60
2021/04/16 01:04:54;;;;;;;1999.90;999.90;;;;;;;6.69;62.25;101960.50;15723816;28;20123;-61
2021/04/16 01:12:32;;;;;;;1999.90;999.90;;;;;;;6.79;61.63;101968.81;15740901;28;20047;-61
2021/04/16 01:20:10;;;;;;;1999.90;999.90;;;;;;;6.83;61.98;101961.59;15739651;28;20044;-60
2021/04/16 01:27:42;;;;;;;1999.90;999.90;;;;;;;7.13;61.42;101953.25;15747988;28;20044;-61
2021/04/16 01:35:16;;;;;;;1999.90;999.90;;;;;;;6.65;62.06;101960.19;15744934;28;20045;-61
2021/04/16 01:42:49;;;;;;;1999.90;999.90;;;;;;;6.75;61.46;101949.09;15724264;28;20044;-61
2021/04/16 01:50:21;;;;;;;1999.90;999.90;;;;;;;6.90;60.96;101959.38;15742292;28;20516;-61
2021/04/16 01:57:54;;;;;;;1999.90;999.90;;;;;;;6.50;62.51;101957.41;15752615;28;20058;-61
2021/04/16 02:05:26;;;;;;;1999.90;999.90;;;;;;;6.46;61.36;101947.97;15758898;28;20407;-62
2021/04/16 02:12:58;;;;;;;1999.90;999.90;;;;;;;6.58;61.77;101948.56;15756478;28;20055;-61
2021/04/16 02:20:30;;;;;;;1999.90;999.90;;;;;;;6.68;60.81;101945.78;15754673;28;20139;-61
2021/04/16 02:28:02;;;;;;;1999.90;999.90;;;;;;;6.82;60.14;101948.84;15752870;28;20093;-62
2021/04/16 02:35:34;;;;;;;1999.90;999.90;;;;;;;6.90;60.57;101948.28;15755200;28;20045;-62
2021/04/16 02:43:06;;;;;;;1999.90;999.90;;;;;;;6.96;58.82;101936.06;15754645;28;20044;-62
2021/04/16 02:50:38;;;;;;;1999.90;999.90;;;;;;;6.73;59.74;101942.16;15753498;28;20148;-62
2021/04/16 02:58:11;;;;;;;1999.90;999.90;;;;;;;6.51;60.34;101932.19;15751504;28;20093;-62
2021/04/16 03:05:42;;;;;;;1999.90;999.90;;;;;;;7.04;59.08;101932.72;15752743;28;20043;-62
2021/04/16 03:13:15;;;;;;;1999.90;999.90;;;;;;;6.97;59.28;101934.09;15752004;28;20040;-62
2021/04/16 03:20:47;;;;;;;1999.90;999.90;;;;;;;6.84;58.98;101944.66;15735094;28;20136;-62
2021/04/16 03:28:19;;;;;;;1999.90;999.90;;;;;;;6.55;59.82;101938.00;15751932;28;20127;-64
2021/04/16 03:35:52;;;;;;;1999.90;999.90;;;;;;;6.68;59.33;101948.56;15750994;28;20036;-62
2021/04/16 03:43:24;;;;;;;1999.90;999.90;;;;;;;6.82;59.60;101951.59;15748996;28;20485;-62
2021/04/16 03:50:56;;;;;;;1999.90;999.90;;;;;;;6.74;59.80;101950.22;15750096;28;20040;-62
2021/04/16 03:58:28;;;;;;;1999.90;999.90;;;;;;;6.81;60.18;101934.13;15748657;28;20051;-61
2021/04/16 04:05:59;;;;;;;1999.90;999.90;;;;;;;6.77;59.42;101943.28;15745135;28;20041;-62
2021/04/16 04:13:32;;;;;;;1999.90;999.90;;;;;;;6.87;60.23;101948.81;15743343;28;20174;-62
2021/04/16 04:21:04;;;;;;;1999.90;999.90;;;;;;;6.75;60.17;101946.31;15744781;28;20045;-62
2021/04/16 04:28:37;;;;;;;1999.90;999.90;;;;;;;7.09;59.54;101945.78;15742532;28;20493;-62
2021/04/16 04:36:09;;;;;;;1999.90;999.90;;;;;;;6.90;60.23;101949.13;15726150;28;20075;-62
2021/04/16 04:43:41;;;;;;;1999.90;999.90;;;;;;;6.75;60.37;101956.59;15742439;28;20090;-62
2021/04/16 04:51:13;;;;;;;1999.90;999.90;;;;;;;6.92;60.18;101957.16;15742671;28;20048;-62
2021/04/16 04:58:45;;;;;;;1999.90;999.90;;;;;;;6.90;60.70;101960.22;15742370;28;20052;-62
2021/04/16 05:06:17;;;;;;;1999.90;999.90;;;;;;;7.12;59.42;101970.19;15743851;28;20512;-63
2021/04/16 05:13:52;;;;;;;1999.90;999.90;;;;;;;7.26;60.00;101971.25;15743874;28;20044;-62
2021/04/16 05:21:25;;;;;;;1999.90;999.90;;;;;;;7.12;59.86;101967.41;15742153;28;20067;-62
2021/04/16 05:28:58;;;;;;;1999.90;999.90;;;;;;;6.91;60.69;101970.19;15740847;28;20044;-62
2021/04/16 05:36:29;;;;;;;1999.90;999.90;;;;;;;7.20;59.96;101967.69;15740798;28;20043;-59
2021/04/16 05:44:02;;;;;;;1999.90;999.90;;;;;;;7.40;59.85;101975.13;15740943;28;20089;-61
2021/04/16 05:51:33;;;;;;;1999.90;999.90;;;;;;;7.33;58.97;101965.44;15741865;28;20490;-62
2021/04/16 05:59:06;;;;;;;1999.90;999.90;;;;;;;7.75;59.39;101970.59;15740601;28;20409;-62
2021/04/16 06:06:37;;;;;;;1999.90;999.90;;;;;;;7.43;59.77;101971.78;15742999;28;20306;-61
2021/04/16 06:14:10;;;;;;;1999.90;999.90;;;;;;;7.84;59.44;101963.31;15738169;28;20044;-62
2021/04/16 06:21:41;;;;;;;1999.90;999.90;;;;;;;8.13;58.53;101971.81;15738896;28;20564;-62
2021/04/16 06:29:13;;;;;;;1999.90;999.90;;;;;;;8.08;58.86;101974.59;15739448;28;20056;-62
2021/04/16 06:36:45;;;;;;;1999.90;999.90;;;;;;;7.90;58.74;101972.44;15741160;28;20082;-62
2021/04/16 06:44:23;;;;;;;1999.90;999.90;;;;;;;8.42;58.19;101980.25;15747564;28;20044;-62
2021/04/16 06:52:02;;;;;;;1999.90;999.90;;;;;;;8.52;57.25;101973.81;15734574;28;20461;-63
2021/04/16 06:59:34;;;;;;;1999.90;999.90;;;;;;;8.72;57.14;101981.19;15749199;28;20040;-62
2021/04/16 07:07:19;;;;;;;1999.90;999.90;;;;;;;10.06;54.03;101981.19;15749855;28;20389;-62
2021/04/16 07:14:55;;;;;;;1999.90;999.90;;;;;;;11.05;51.64;101985.88;15748968;28;20041;-63
2021/04/16 07:22:37;;;;;;;1999.90;999.90;;;;;;;11.14;51.02;101981.22;15752311;28;20497;-63
2021/04/16 07:30:26;;;;;;;1999.90;999.90;;;;;;;11.27;50.14;101985.19;15812299;22;20051;-70
2021/04/16 07:38:07;;;;;;;1999.90;999.90;;;;;;;10.92;51.41;101989.41;15790230;28;20131;-71
2021/04/16 07:45:46;;;;;;;1999.90;999.90;;;;;;;10.76;51.74;101993.59;15806789;28;20036;-70
2021/04/16 07:53:43;;;;;;;1999.90;999.90;;;;;;;10.58;52.50;101996.09;15806709;28;20052;-71
2021/04/16 08:01:27;;;;;;;1999.90;999.90;;;;;;;10.65;51.89;101998.53;15779743;28;20051;-71
2021/04/16 08:09:00;;;;;;;;;;;;;;;10.98;49.68;101991.84;15804308;28;20429;-70
2021/04/16 08:16:35;;;;;;;1999.90;999.90;;;;;;;11.19;49.99;101997.91;15805269;28;19920;-70
2021/04/16 08:24:17;;;;;;;1999.90;999.90;;;;;;;10.81;50.50;102004.69;15798764;28;20051;-69
2021/04/16 08:31:53;;;;;;;1999.90;999.90;;;;;;;11.26;49.28;101998.34;15815038;28;20048;-68
2021/04/16 08:39:31;;;;;;;1999.90;999.90;;;;;;;11.40;49.79;102001.16;15809427;28;20048;-69
2021/04/16 08:47:07;;;;;;;1999.90;999.90;;;;;;;11.19;50.02;101999.88;15785139;28;20110;-69
2021/04/16 08:54:40;;;;;;;1999.90;999.90;;;;;;;11.49;48.61;102001.28;15798847;28;20127;-70
2021/04/16 09:02:20;;;;;;;1999.90;999.90;;;;;;;12.38;46.96;101986.88;15800821;28;20059;-69
2021/04/16 09:09:54;;;;;;;1999.90;999.90;;;;;;;13.19;44.76;101998.94;15801743;28;20174;-67
2021/04/16 09:18:03;;;;;;;1999.90;999.90;;;;;;;14.21;43.24;101998.91;15802260;28;20095;-68
2021/04/16 09:25:46;;;;;;;1999.90;999.90;;;;;;;15.10;42.14;101999.44;15783992;28;20036;-67
2021/04/16 09:33:20;;;;;;;1999.90;999.90;;;;;;;16.22;39.91;101999.06;15800806;28;20077;-67
2021/04/16 09:41:08;;;;;;;1999.90;999.90;;;;;;;16.48;38.57;101995.28;15800830;28;20576;-68
2021/04/16 09:48:47;;;;;;;1999.90;999.90;;;;;;;16.94;39.80;101997.91;15800475;28;20036;-67
2021/04/16 09:56:20;;;;;;;1999.90;999.90;;;;;;;18.70;33.20;102002.72;15800929;28;20044;-67
2021/04/16 10:03:54;;;;;;;1999.90;999.90;;;;;;;14.79;37.50;101985.59;15782668;28;20056;-68
2021/04/16 10:11:27;;;;;;;1999.90;999.90;;;;;;;14.76;41.44;101987.06;15799642;28;20144;-69
2021/04/16 10:19:00;;;;;;;1999.90;999.90;;;;;;;14.37;41.36;101985.19;15802816;28;20082;-68
2021/04/16 12:41:43;;;;;;;1999.90;999.90;;;;;;;23.73;25.09;101920.53;15733637;28;20037;-60
2021/04/16 12:49:16;;;;;;;1999.90;999.90;;;;;;;23.26;25.57;101919.28;15735594;28;20085;-61
2021/04/16 12:56:48;;;;;;;1999.90;999.90;;;;;;;20.35;28.84;101913.25;15735442;28;20047;-61
2021/04/16 13:04:24;;;;;;;1999.90;999.90;;;;;;;19.56;29.28;101896.41;15731438;28;20049;-62
2021/04/16 13:11:57;;;;;;;1999.90;999.90;;;;;;;24.67;23.81;101900.75;15732628;28;20044;-61
2021/04/16 13:19:45;;;;;;;1999.90;999.90;;;;;;;25.23;22.10;101887.91;15733065;28;20113;-62
2021/04/16 13:27:36;;;;;;;1999.90;999.90;;;;;;;24.55;22.80;101891.75;15731736;28;20048;-59
2021/04/16 13:35:29;;;;;;;1999.90;999.90;;;;;;;25.04;21.84;101891.13;15744827;28;20044;-63
2021/04/16 13:43:06;;;;;;;1999.90;999.90;;;;;;;25.27;24.06;101885.03;15731376;28;20043;-62
2021/04/16 13:50:42;;;;;;;1999.90;999.90;;;;;;;26.05;23.45;101881.34;15732829;28;20454;-62
2021/04/16 13:58:14;;;;;;;1999.90;999.90;;;;;;;19.83;28.92;101874.81;15743950;28;20040;-62
2021/04/16 14:05:50;;;;;;;1999.90;999.90;;;;;;;16.76;32.19;101863.09;15742347;28;20485;-62
2021/04/16 14:13:22;;;;;;;1999.90;999.90;;;;;;;16.76;33.22;101865.91;15741014;28;20044;-61
2021/04/16 14:20:55;;;;;;;1999.90;999.90;;;;;;;16.34;32.08;101846.22;15739290;28;20093;-61
2021/04/16 14:28:27;;;;;;;1999.90;999.90;;;;;;;16.26;33.64;101852.78;15731623;28;20461;-61
2021/04/16 14:36:00;;;;;;;1999.90;999.90;;;;;;;15.89;35.20;101849.75;15731101;28;20109;-60
2021/04/16 14:43:32;;;;;;;1999.90;999.90;;;;;;;15.79;34.40;101850.13;15740394;28;20045;-61
2021/04/16 14:51:07;;;;;;;1999.90;999.90;;;;;;;15.55;34.02;101843.13;15741934;28;20064;-61
2021/04/16 14:58:44;;;;;;;1999.90;999.90;;;;;;;15.63;33.25;101855.53;15725970;28;20040;-62
2021/04/16 15:06:20;;;;;;;1999.90;999.90;;;;;;;15.76;33.00;101848.00;15742932;28;20127;-61
2021/04/16 15:13:52;;;;;;;1999.90;999.90;;;;;;;15.55;34.11;101845.94;15741391;28;20373;-62
2021/04/16 15:21:25;;;;;;;1999.90;999.90;;;;;;;15.38;35.05;101840.41;15739996;28;20071;-64
2021/04/16 15:28:59;;;;;;;1999.90;999.90;;;;;;;15.22;33.10;101830.91;15736073;28;20032;-61
2021/04/16 17:00:17;;;;;;;1999.90;999.90;;;;;;;13.07;35.46;101852.13;15907439;27;20051;-61
2021/04/16 17:07:48;;;;;;;1999.90;999.90;;;;;;;12.11;36.99;101864.66;15905400;27;20043;-61
2021/04/16 17:15:28;;;;;;;1999.90;999.90;;;;;;;12.01;36.22;101864.88;15890917;27;20047;-63
2021/04/16 17:23:00;;;;;;;1999.90;999.90;;;;;;;12.02;35.59;101872.97;15906293;27;20141;-59
2021/04/16 17:30:39;;;;;;;1999.90;999.90;;;;;;;11.99;38.28;101887.59;15923675;27;20051;-63
2021/04/16 17:38:10;;;;;;;1999.90;999.90;;;;;;;11.93;38.67;101879.59;15904968;27;20196;-59
2021/04/16 17:45:44;;;;;;;1999.90;999.90;;;;;;;11.70;39.99;101879.50;15923118;27;20051;-60
2021/04/16 17:53:17;;;;;;;1999.90;999.90;;;;;;;11.80;39.85;101889.69;15904819;28;20479;-64
2021/04/16 18:00:50;;;;;;;1999.90;999.90;;;;;;;11.09;41.19;101903.09;15923115;28;20079;-60
2021/04/16 18:08:21;;;;;;;1999.90;999.90;;;;;;;11.15;40.04;101906.59;15904319;28;20068;-57
2021/04/16 18:15:54;;;;;;;1999.90;999.90;;;;;;;10.80;39.42;101913.69;15922032;28;20106;-56
2021/04/16 18:23:30;;;;;;;1999.90;999.90;;;;;;;10.67;39.69;101926.47;15904385;28;20050;-55
2021/04/16 18:31:04;;;;;;;1999.90;999.90;;;;;;;10.80;39.15;101928.47;15921752;28;20212;-63
2021/04/16 18:38:37;;;;;;;1999.90;999.90;;;;;;;10.79;39.88;101923.19;15891528;27;20455;-61
2021/04/16 18:46:11;;;;;;;;;;;;;;;10.81;40.65;101923.72;15933690;27;20506;-59
2021/04/16 18:53:44;;;;;;;;;;;;;;;10.74;40.53;101924.13;15933403;27;19920;-59
2021/04/16 19:01:20;;;;;;;1999.90;999.90;;;;;;;10.68;41.24;101939.28;15908098;27;19942;-61
2021/04/16 19:08:52;;;;;;;1999.90;999.90;;;;;;;10.27;41.43;101928.75;15849933;28;20040;-60
2021/04/16 19:16:25;;;;;;;1999.90;999.90;;;;;;;10.50;41.42;101932.59;15832549;28;20357;-61
2021/04/16 19:24:01;;;;;;;1999.90;999.90;;;;;;;10.09;41.06;101932.31;15848617;28;20063;-60
2021/04/16 19:31:35;;;;;;;1999.90;999.90;;;;;;;10.01;40.41;101936.63;15866996;28;20043;-60
2021/04/16 19:39:11;;;;;;;1999.90;999.90;;;;;;;10.30;40.73;101939.31;15831520;28;20052;-61
2021/04/16 19:46:43;;;;;;;1999.90;999.90;;;;;;;10.39;40.82;101945.88;15830424;28;20053;-61
2021/04/16 20:17:50;;;;;;;1999.90;999.90;;;;;;;10.12;42.71;101928.97;15910085;27;20038;-61
2021/04/16 20:25:26;;;;;;;1999.90;999.90;;;;;;;9.45;45.14;101939.28;15928468;27;20085;-60
2021/04/16 20:32:59;;;;;;;1999.90;999.90;;;;;;;9.43;45.76;101928.44;15910384;27;20051;-64
2021/04/16 20:40:33;;;;;;;1999.90;999.90;;;;;;;9.72;45.51;101922.78;15929168;27;20130;-60
2021/04/16 20:48:10;;;;;;;1999.90;999.90;;;;;;;9.43;46.45;101935.97;15927661;27;20384;-60
2021/04/16 20:55:44;;;;;;;1999.90;999.90;;;;;;;9.29;48.06;101929.44;15907547;27;20043;-60
2021/04/16 21:03:30;;;;;;;1999.90;999.90;;;;;;;9.50;47.94;101925.31;15905981;27;20054;-61
2021/04/16 21:11:05;;;;;;;1999.90;999.90;;;;;;;9.68;46.46;101926.47;15906343;27;20058;-61
2021/04/16 21:18:42;;;;;;;1999.90;999.90;;;;;;;9.50;46.91;101930.88;15923782;27;20043;-58
2021/04/16 21:26:22;;;;;;;1999.90;999.90;;;;;;;9.55;47.25;101928.00;15905830;27;20051;-63
2021/04/16 21:33:54;;;;;;;1999.90;999.90;;;;;;;9.70;47.62;101930.63;15888141;27;20047;-62
2021/04/16 21:41:29;;;;;;;1999.90;999.90;;;;;;;9.58;48.57;101930.19;15923178;27;20099;-62
2021/04/16 21:49:04;;;;;;;1999.90;999.90;;;;;;;9.68;47.91;101932.84;15886888;27;20112;-62
2021/04/16 21:56:36;;;;;;;1999.90;999.90;;;;;;;9.79;47.49;101919.63;15922964;28;20048;-59
2021/04/16 22:04:11;;;;;;;1999.90;999.90;;;;;;;10.04;47.08;101910.94;15923074;28;20039;-62
2021/04/16 22:11:49;;;;;;;1999.90;999.90;;;;;;;9.68;47.08;101916.13;15907674;27;20103;-61
2021/04/16 22:19:24;;;;;;;1999.90;999.90;;;;;;;10.07;46.96;101910.31;15935711;27;20047;-62
2021/04/16 22:27:00;;;;;;;1999.90;999.90;;;;;;;9.78;47.55;101915.19;15916448;27;20045;-57
2021/04/16 22:34:35;;;;;;;1999.90;999.90;;;;;;;9.76;47.75;101906.28;15943180;27;20043;-61
2021/04/16 22:42:10;;;;;;;1999.90;999.90;;;;;;;9.43;48.16;101919.25;15945355;27;20502;-61
2021/04/16 22:49:43;;;;;;;1999.90;999.90;;;;;;;9.56;48.37;101910.16;15900447;27;20470;-61
2021/04/16 22:57:17;;;;;;;1999.90;999.90;;;;;;;8.75;54.04;101914.63;15932332;27;20039;-58
2021/04/16 23:04:50;;;;;;;;;;;;;;;8.79;53.25;101907.38;15934072;27;20039;-57
2021/04/16 23:12:24;;;;;;;1999.90;999.90;;;;;;;8.45;52.99;101893.47;15933938;27;20672;-61
2021/04/16 23:19:57;;;;;;;1999.90;999.90;;;;;;;8.53;53.43;101887.25;15933215;27;20444;-60
2021/04/16 23:27:34;;;;;;;1999.90;999.90;;;;;;;8.71;52.26;101865.41;15930022;27;20360;-58
2021/04/16 23:35:06;;;;;;;1999.90;999.90;;;;;;;9.14;50.23;101863.59;15932700;27;20039;-59
2021/04/16 23:42:39;;;;;;;1999.90;999.90;;;;;;;9.44;50.36;101846.50;15931875;27;20053;-59
2021/04/16 23:50:11;;;;;;;1999.90;999.90;;;;;;;9.83;48.38;101835.09;15932008;27;20039;-60
2021/04/16 23:57:43;;;;;;;1999.90;999.90;;;;;;;9.88;48.38;101828.63;15928441;27;20152;-62
